Terminal Aerodrome Forecast
Issued by NWS

Home | Current Version | Previous Version | Text Only | Print | Product List | Glossary On
Versions: 1 2 3 4 5 6 7 8 9 10 11 12 13 14 15 16 17 18 19 20 21 22
751
FTUS46 KSEW 281154
TAFBFI
TAF
KBFI 281154Z 2812/0112 VRB03KT P6SM VCSH SCT010 BKN035 OVC045
      TEMPO 2812/2814 -SHSN SCT010 OVC035
     FM281500 VRB03KT P6SM SCT008 OVC025
     FM281800 15006KT P6SM SCT020 BKN040
     FM282100 16008KT P6SM BKN050
     FM010300 17012G20KT P6SM -RA OVC040
     FM010800 17013G24KT P6SM VCSH BKN035 BKN100=

USA.gov is the U.S. government's official web portal to all federal, state and local government web resources and services.